Flight Track Log - Related Links

Times and Time Zones

All times are in EDT time to prevent confusion due to time zone crossing. See the SKW6447 flight status page for this flight to view local times or setup timezone preferences in your user account.

Time Position Orientation Groundspeed Altitude Reporting Facility
EDT Latitude Longitude Course Direction KTS MPH feet Rate Location/Type
Mon 09:36:14 AM 41.9333 -87.9500 270° West 185 213 2,800  Level Chicago TRACON
Mon 09:37:14 AM 41.9333 -88.0333 270° West 249 287 4,900 985 Climbing Chicago TRACON
Mon 09:38:00 AM 41.9667 -88.2880 270° West  Level FlightAware Approximate
Mon 09:38:28 AM 41.9214 -88.1250 260° West 245 282 5,000  Level Chicago Center
Mon 09:39:00 AM 41.9667 -88.4174 270° West  Level FlightAware Approximate
Mon 09:39:31 AM 41.9117 -88.2386 263° West 255 293 7,700  Level Chicago Center
Mon 09:40:00 AM 41.9667 -88.5467 270° West  Level FlightAware Approximate
Mon 09:40:32 AM 41.9114 -88.3336 270° West 256 295 10,900  Level Chicago Center
Mon 09:41:00 AM 41.9667 -88.6520 270° West  Level FlightAware Approximate
Mon 09:41:34 AM 41.8881 -88.4311 252° West 295 339 13,100  Level Chicago Center
Mon 09:42:36 AM 41.8283 -88.5236 229° Southwest 329 379 15,400 1,403 Climbing Chicago Center
Mon 09:43:38 AM 41.7636 -88.6478 235° Southwest 343 395 16,000 288 Climbing Chicago Center
Mon 09:44:41 AM 41.7103 -88.7547 236° Southwest 348 400 16,000  Level Chicago Center
Mon 09:45:43 AM 41.6597 -88.8592 237° Southwest 341 392 16,000  Level Chicago Center
Mon 09:46:45 AM 41.6094 -88.9628 237° Southwest 335 386 16,000  Level Chicago Center
Mon 09:47:47 AM 41.5583 -89.0667 237° Southwest 337 388 16,000 -387 Level Chicago Center
Mon 09:48:49 AM 41.4983 -89.1928 238° Southwest 338 389 15,200 -823 Descending Chicago Center
Mon 09:49:51 AM 41.4483 -89.3019 239° Southwest 349 402 14,300 -919 Descending Chicago Center
Mon 09:50:53 AM 41.3964 -89.4083 237° Southwest 346 398 13,300 -968 Descending Chicago Center
Mon 09:51:55 AM 41.3117 -89.4711 209° Southwest 346 398 12,300 -1,113 Descending Chicago Center
Mon 09:52:57 AM 41.2308 -89.5336 210° Southwest 339 390 11,000 -1,258 Descending Chicago Center
Mon 09:53:59 AM 41.1544 -89.5894 209° Southwest 317 365 9,700 -1,728 Descending Chicago Center
Mon 09:55:02 AM 41.0617 -89.6303 198° South 296 341 7,400 -1,920 Descending Chicago Center
Mon 09:56:04 AM 40.9867 -89.6619 198° South 286 329 5,700 -1,258 Descending Chicago Center
Mon 09:57:06 AM 40.9150 -89.6433 169° South 268 308 4,800 -774 Descending Chicago Center
Mon 09:58:08 AM 40.8450 -89.6197 166° South 260 299 4,100 -677 Descending Chicago Center
Mon 09:59:10 AM 40.7842 -89.6019 168° South 236 272 3,400 -774 Descending Chicago Center
Mon 10:00:12 AM 40.7336 -89.6108 188° South 202 232 2,500 -968 Descending Chicago Center
Mon 10:01:14 AM 40.7003 -89.6453 218° Southwest 170 196 1,400 -1,065 Descending Chicago Center

Login

Don't have an account? Register now (free) for customized features, flight alerts, and more!